CheckWX is a tool to help pilots better visualize weather data.  It is not intended as a substitute for an official pre-flight weather briefing.

08:50:30 UTC

EVVA METAR
Ventspils International Airport
Ventspils, Latvia
Current

31 mins ago

EVVA 220820Z AUTO 03008KT CAVOK M03/M09 Q1041
Observed
Feb-22 @ 08:20 UTC
Wind
  • 030° at 8 KTS
Visibility
10,000+ meters
Flight Rules
VFR
Cloud Levels
  • Clear skies
Temperature
-3°C / 27°F
Dewpoint
-9°C / 16°F
Humidity
64%
Altimeter
30.74" Hg
Pressure
1040.91 hPa
Previous

1 hour ago

EVVA 220750Z AUTO 03007KT CAVOK M03/M08 Q1041
Observed
Feb-22 @ 07:50 UTC
Wind
  • 030° at 7 KTS
Visibility
10,000+ meters
Flight Rules
VFR
Cloud Levels
  • Clear skies
Temperature
-3°C / 27°F
Dewpoint
-8°C / 18°F
Humidity
69%
Altimeter
30.74" Hg
Pressure
1040.91 hPa
Previous

2 hours ago

EVVA 220720Z AUTO 03005KT CAVOK M04/M08 Q1040
Observed
Feb-22 @ 07:20 UTC
Wind
  • 030° at 5 KTS
Visibility
10,000+ meters
Flight Rules
VFR
Cloud Levels
  • Clear skies
Temperature
-4°C / 25°F
Dewpoint
-8°C / 18°F
Humidity
74%
Altimeter
30.71" Hg
Pressure
1039.91 hPa